Time;durP1;ratioP1;P1;durP2;ratioP2;P2;SDS_P1;SDS_P2;PMS_P1;PMS_P2;Temp;Humidity;BMP_temperature;BMP_pressure;BME280_temperature;BME280_humidity;BME280_pressure;Samples;Min_cycle;Max_cycle;Signal;HPM_P1;HPM_P2
2023/09/15 00:01:35;;;;;;;3.47;1.80;;;;;;;13.36;100.00;102461.91;4922374;29;20451;-68
2023/09/15 00:04:05;;;;;;;4.10;1.57;;;;;;;13.40;100.00;102544.97;4923588;29;21024;-68
2023/09/15 00:06:31;;;;;;;5.80;1.80;;;;;;;13.11;100.00;102519.44;4922490;29;20476;-68
2023/09/15 00:08:57;;;;;;;5.43;1.80;;;;;;;13.08;100.00;102521.66;4911432;29;20432;-68
2023/09/15 00:11:23;;;;;;;3.80;1.80;;;;;;;12.43;100.00;102453.50;4925017;29;20196;-68
2023/09/15 00:13:48;;;;;;;6.73;2.07;;;;;;;13.26;100.00;102540.31;4910363;29;20479;-67
2023/09/15 00:16:14;;;;;;;5.33;2.37;;;;;;;12.71;100.00;102447.72;4909905;29;20268;-67
2023/09/15 00:18:41;;;;;;;5.83;2.20;;;;;;;12.74;100.00;102495.00;4910786;29;20286;-68
2023/09/15 00:21:09;;;;;;;5.80;2.40;;;;;;;12.81;100.00;102463.66;4923681;29;20224;-68
2023/09/15 00:23:37;;;;;;;5.40;2.23;;;;;;;12.43;100.00;102456.19;4923725;29;20472;-67
2023/09/15 00:26:03;;;;;;;9.77;2.50;;;;;;;12.49;100.00;102481.59;4921827;29;20544;-68
2023/09/15 00:28:29;;;;;;;4.47;2.10;;;;;;;12.39;100.00;102465.63;4922810;29;20428;-68
2023/09/15 00:30:55;;;;;;;7.93;2.20;;;;;;;12.47;100.00;102454.03;4924372;29;20424;-68
2023/09/15 00:33:21;;;;;;;4.40;2.07;;;;;;;12.99;100.00;102563.94;4920951;29;20216;-69
2023/09/15 00:35:47;;;;;;;3.60;1.90;;;;;;;13.08;100.00;102556.69;4907754;29;20456;-70
2023/09/15 00:38:13;;;;;;;3.83;1.87;;;;;;;12.52;100.00;102462.41;4922762;29;20204;-70
2023/09/15 00:40:39;;;;;;;4.73;2.23;;;;;;;12.45;100.00;102434.50;4921265;29;20448;-70
2023/09/15 00:43:04;;;;;;;4.37;1.93;;;;;;;12.78;100.00;102501.72;4897203;29;20209;-70
2023/09/15 00:45:30;;;;;;;7.83;2.50;;;;;;;13.21;100.00;102565.03;4906642;29;20455;-70
2023/09/15 00:47:57;;;;;;;7.10;2.40;;;;;;;12.53;100.00;102439.03;4907701;29;20208;-70
2023/09/15 00:50:31;;;;;;;3.43;1.97;;;;;;;12.68;100.00;102511.84;4921921;29;20193;-70
2023/09/15 00:53:01;;;;;;;6.87;2.10;;;;;;;12.43;100.00;102455.38;4902688;29;21006;-70
2023/09/15 00:55:29;;;;;;;3.40;1.97;;;;;;;12.44;100.00;102460.59;4907315;29;20949;-70
2023/09/15 00:57:56;;;;;;;6.73;1.70;;;;;;;13.06;100.00;102556.00;4918090;29;20548;-71
2023/09/15 01:00:22;;;;;;;3.37;2.03;;;;;;;13.08;100.00;102567.44;4922046;29;20444;-70
2023/09/15 01:02:49;;;;;;;6.77;2.60;;;;;;;13.18;100.00;102562.69;4906852;29;20472;-70
2023/09/15 01:05:22;;;;;;;5.80;2.23;;;;;;;11.96;100.00;102456.94;4908551;29;20460;-70
2023/09/15 01:07:52;;;;;;;3.50;2.10;;;;;;;12.88;100.00;102570.53;4921732;29;20479;-70
2023/09/15 01:10:19;;;;;;;5.03;2.33;;;;;;;12.95;100.00;102553.69;4921293;29;20447;-70
2023/09/15 01:12:45;;;;;;;3.70;2.40;;;;;;;12.76;100.00;102528.00;4919304;29;20851;-70
2023/09/15 01:15:11;;;;;;;5.03;2.00;;;;;;;12.97;100.00;102573.19;4908353;29;20498;-70
2023/09/15 01:18:00;;;;;;;6.20;2.13;;;;;;;12.94;100.00;102576.25;4908778;29;20472;-70
2023/09/15 01:20:39;;;;;;;5.53;2.43;;;;;;;12.50;100.00;102536.25;4914869;29;20259;-70
2023/09/15 01:23:50;;;;;;;6.03;2.50;;;;;;;12.87;100.00;102560.78;4909751;29;20491;-71
2023/09/15 01:26:19;;;;;;;4.20;2.43;;;;;;;13.03;100.00;102557.19;4919037;29;20979;-71
2023/09/15 01:29:01;;;;;;;6.63;2.67;;;;;;;11.85;100.00;102433.06;4909234;29;20452;-71
2023/09/15 01:31:26;;;;;;;4.40;2.57;;;;;;;12.50;100.00;102593.63;4911301;29;20484;-71
2023/09/15 01:33:53;;;;;;;5.63;2.43;;;;;;;12.49;100.00;102542.66;4926789;29;20479;-70
2023/09/15 01:36:19;;;;;;;5.23;2.53;;;;;;;12.59;100.00;102517.25;4912074;29;20198;-70
2023/09/15 01:38:44;;;;;;;4.70;2.30;;;;;;;12.87;100.00;102581.47;4926124;29;20440;-71
2023/09/15 01:41:10;;;;;;;5.37;2.70;;;;;;;12.96;100.00;102552.66;4910774;29;20700;-70
2023/09/15 01:43:35;;;;;;;4.97;2.13;;;;;;;12.71;100.00;102504.25;4911111;29;20722;-70
2023/09/15 01:46:01;;;;;;;4.60;2.50;;;;;;;12.60;100.00;102489.31;4909162;29;20275;-70
2023/09/15 01:48:27;;;;;;;4.30;2.53;;;;;;;12.01;100.00;102421.47;4913640;29;20195;-70
2023/09/15 01:50:55;;;;;;;4.70;2.67;;;;;;;11.93;100.00;102422.31;4913270;29;20279;-70
2023/09/15 01:53:20;;;;;;;5.40;2.70;;;;;;;11.85;100.00;102434.88;4912695;29;20459;-70
2023/09/15 01:55:48;;;;;;;4.73;2.40;;;;;;;12.75;100.00;102548.66;4913058;29;20453;-70
2023/09/15 01:58:14;;;;;;;4.37;2.10;;;;;;;12.19;100.00;102473.22;4912409;29;20220;-70
2023/09/15 02:00:39;;;;;;;5.10;2.60;;;;;;;12.74;100.00;102530.00;4926971;29;20496;-70
2023/09/15 02:03:05;;;;;;;3.43;2.63;;;;;;;11.93;100.00;102413.41;4912010;29;20707;-70
2023/09/15 02:05:30;;;;;;;5.43;2.77;;;;;;;12.66;100.00;102525.47;4912537;29;20682;-70
2023/09/15 02:07:56;;;;;;;6.00;3.30;;;;;;;12.61;100.00;102541.28;4911320;29;20279;-70
2023/09/15 02:10:22;;;;;;;4.57;2.77;;;;;;;11.79;100.00;102439.09;4924153;29;20276;-70
2023/09/15 02:12:48;;;;;;;4.17;2.90;;;;;;;11.98;100.00;102443.34;4897743;29;20467;-70
2023/09/15 02:15:14;;;;;;;4.43;2.73;;;;;;;12.79;100.00;102541.94;4909198;29;20659;-70
2023/09/15 02:17:40;;;;;;;6.17;3.27;;;;;;;12.40;100.00;102547.19;4922609;29;20407;-70
2023/09/15 02:20:12;;;;;;;6.00;2.73;;;;;;;12.49;100.00;102569.56;4910643;29;20530;-70
2023/09/15 02:22:43;;;;;;;5.10;3.07;;;;;;;12.53;100.00;102550.22;4909360;29;20239;-70
2023/09/15 02:25:09;;;;;;;6.00;3.53;;;;;;;11.91;100.00;102477.28;4911979;29;20444;-70
2023/09/15 02:27:38;;;;;;;6.93;2.90;;;;;;;11.74;100.00;102455.75;4909746;29;21043;-70
2023/09/15 02:30:05;;;;;;;4.53;2.60;;;;;;;11.89;100.00;102426.38;4907951;29;20437;-70
2023/09/15 02:32:30;;;;;;;5.47;3.03;;;;;;;12.54;100.00;102549.22;4921902;29;20472;-70
2023/09/15 02:34:56;;;;;;;4.63;3.00;;;;;;;12.59;100.00;102546.03;4912563;29;21209;-70
2023/09/15 02:37:22;;;;;;;5.73;2.70;;;;;;;12.30;100.00;102528.56;4912104;29;20181;-70
2023/09/15 02:39:47;;;;;;;4.63;2.80;;;;;;;12.61;100.00;102535.91;4913013;29;20247;-70
2023/09/15 02:42:13;;;;;;;4.90;3.37;;;;;;;12.11;100.00;102512.75;4911296;29;20207;-70
2023/09/15 02:44:38;;;;;;;5.60;2.60;;;;;;;11.74;100.00;102438.75;4910392;29;20196;-70
2023/09/15 02:47:03;;;;;;;4.83;2.63;;;;;;;11.97;100.00;102469.34;4910009;29;20633;-71
2023/09/15 02:49:30;;;;;;;6.47;3.50;;;;;;;12.35;100.00;102538.78;4910858;29;20188;-71
2023/09/15 02:51:57;;;;;;;5.47;3.03;;;;;;;12.33;100.00;102524.69;4925088;29;20204;-71
2023/09/15 02:54:22;;;;;;;3.87;2.50;;;;;;;12.29;100.00;102534.09;4925416;29;20567;-71
2023/09/15 02:56:48;;;;;;;5.03;3.10;;;;;;;11.61;100.00;102414.22;4911267;29;20519;-71
2023/09/15 02:59:13;;;;;;;4.20;3.03;;;;;;;12.34;100.00;102515.59;4909972;29;20192;-70
2023/09/15 03:01:38;;;;;;;7.87;2.80;;;;;;;11.69;100.00;102468.84;4911441;29;20557;-71
2023/09/15 03:04:05;;;;;;;6.33;2.87;;;;;;;11.88;100.00;102499.13;4905889;29;20220;-70
2023/09/15 03:06:30;;;;;;;5.00;3.00;;;;;;;12.05;100.00;102468.53;4924105;29;20571;-69
2023/09/15 03:08:55;;;;;;;5.80;2.73;;;;;;;11.99;100.00;102483.50;4908160;29;20457;-70
2023/09/15 03:11:22;;;;;;;5.30;2.97;;;;;;;11.64;100.00;102412.03;4907684;29;20188;-70
2023/09/15 03:13:47;;;;;;;5.73;3.47;;;;;;;12.11;100.00;102461.63;4908705;29;20216;-71
2023/09/15 03:16:13;;;;;;;6.03;2.53;;;;;;;11.53;100.00;102409.69;4911243;29;20512;-70
2023/09/15 03:18:39;;;;;;;4.87;3.30;;;;;;;12.37;100.00;102526.00;4922112;29;20663;-71
2023/09/15 03:21:04;;;;;;;5.00;3.00;;;;;;;12.23;100.00;102468.34;4908709;29;20648;-70
2023/09/15 03:23:30;;;;;;;4.83;2.87;;;;;;;11.45;100.00;102398.91;4915327;29;20770;-70
2023/09/15 03:26:03;;;;;;;4.93;3.20;;;;;;;12.24;100.00;102526.53;4919572;29;20189;-70
2023/09/15 03:28:31;;;;;;;4.83;3.43;;;;;;;11.86;100.00;102472.41;4909550;29;20448;-70
2023/09/15 03:30:57;;;;;;;5.70;3.50;;;;;;;11.98;100.00;102441.47;4910609;29;20439;-70
2023/09/15 03:33:23;;;;;;;4.43;2.50;;;;;;;11.60;100.00;102396.41;4908021;29;20999;-70
2023/09/15 03:35:49;;;;;;;5.20;3.47;;;;;;;11.15;100.00;102368.16;4918634;29;20180;-70
2023/09/15 03:38:14;;;;;;;7.00;4.23;;;;;;;12.04;100.00;102479.47;4909149;29;20479;-70
2023/09/15 03:40:39;;;;;;;6.83;3.80;;;;;;;11.21;100.00;102397.88;4922117;29;20263;-70
2023/09/15 03:43:06;;;;;;;7.23;3.63;;;;;;;11.95;100.00;102500.16;4909019;29;20254;-70
2023/09/15 03:45:31;;;;;;;5.40;3.60;;;;;;;11.96;100.00;102515.25;4921325;29;21035;-70
2023/09/15 03:47:57;;;;;;;5.60;3.23;;;;;;;11.96;100.00;102497.28;4907982;29;20484;-70
2023/09/15 03:50:23;;;;;;;5.40;3.10;;;;;;;11.81;100.00;102498.91;4919632;29;20195;-70
2023/09/15 03:52:48;;;;;;;5.43;3.37;;;;;;;11.74;100.00;102441.44;4922095;29;20464;-70
2023/09/15 03:55:14;;;;;;;4.33;3.33;;;;;;;11.79;100.00;102489.34;4908614;29;20291;-70
2023/09/15 03:57:39;;;;;;;6.17;3.20;;;;;;;11.84;100.00;102477.06;4907311;29;20180;-70
2023/09/15 04:00:05;;;;;;;7.43;3.80;;;;;;;12.02;100.00;102513.75;4905088;29;20198;-70
2023/09/15 04:02:31;;;;;;;5.90;3.53;;;;;;;12.03;100.00;102505.50;4922397;29;20216;-70
2023/09/15 04:04:56;;;;;;;6.50;3.43;;;;;;;12.06;100.00;102472.88;4906791;29;20812;-70
2023/09/15 04:07:22;;;;;;;5.80;3.80;;;;;;;11.81;100.00;102474.72;4906096;29;20244;-71
2023/09/15 04:09:47;;;;;;;7.23;3.60;;;;;;;11.36;100.00;102359.63;4908240;29;20200;-70
2023/09/15 04:12:13;;;;;;;4.53;3.37;;;;;;;11.33;100.00;102395.72;4915351;29;20196;-70
2023/09/15 04:14:39;;;;;;;4.20;3.13;;;;;;;11.25;100.00;102391.19;4921037;29;20188;-70
2023/09/15 04:17:04;;;;;;;4.70;3.37;;;;;;;11.92;100.00;102504.00;4908276;29;20192;-70
2023/09/15 04:19:30;;;;;;;5.80;3.50;;;;;;;12.08;100.00;102505.00;4907945;29;20192;-70
2023/09/15 04:21:56;;;;;;;5.07;3.77;;;;;;;11.33;100.00;102446.75;4918120;29;20196;-70
2023/09/15 04:24:21;;;;;;;7.10;3.67;;;;;;;11.20;100.00;102427.59;4908544;29;20519;-70
2023/09/15 04:26:47;;;;;;;5.63;3.90;;;;;;;11.08;100.00;102400.22;4914392;29;20768;-70
2023/09/15 04:29:12;;;;;;;6.10;3.73;;;;;;;12.06;100.00;102521.31;4906573;29;20199;-70
2023/09/15 04:31:38;;;;;;;6.00;3.60;;;;;;;11.76;100.00;102510.16;4907407;29;20200;-70
2023/09/15 04:34:04;;;;;;;6.73;3.70;;;;;;;11.32;100.00;102431.66;4917881;29;20219;-70
2023/09/15 04:36:30;;;;;;;6.70;4.10;;;;;;;11.73;100.00;102501.59;4903134;29;20243;-70
2023/09/15 04:38:56;;;;;;;5.70;3.43;;;;;;;11.86;100.00;102511.88;4906054;29;20177;-70
2023/09/15 04:41:21;;;;;;;6.87;3.57;;;;;;;11.57;100.00;102523.91;4913483;29;20454;-70
2023/09/15 04:43:47;;;;;;;4.97;3.83;;;;;;;10.67;100.00;102426.06;4918688;29;20912;-70
2023/09/15 04:46:13;;;;;;;4.77;3.70;;;;;;;11.32;100.00;102523.81;4921044;29;20208;-70
2023/09/15 04:48:39;;;;;;;5.50;4.00;;;;;;;10.53;100.00;102447.13;4921095;29;20196;-70
2023/09/15 04:51:05;;;;;;;4.97;3.90;;;;;;;11.28;100.00;102516.25;4899097;29;20219;-70
2023/09/15 04:53:30;;;;;;;5.23;3.70;;;;;;;10.61;100.00;102454.38;4908327;29;20998;-70
2023/09/15 04:55:56;;;;;;;5.77;3.70;;;;;;;11.14;100.00;102508.78;4908366;29;20192;-70
2023/09/15 04:58:21;;;;;;;6.27;3.27;;;;;;;10.94;100.00;102446.50;4907141;29;20192;-70
2023/09/15 05:00:48;;;;;;;5.10;3.63;;;;;;;11.12;100.00;102492.88;4909253;29;20248;-70
2023/09/15 05:03:13;;;;;;;4.40;3.63;;;;;;;10.94;100.00;102435.75;4917368;29;20224;-70
2023/09/15 05:05:39;;;;;;;7.40;3.87;;;;;;;11.62;100.00;102501.91;4909534;29;20447;-70
2023/09/15 05:08:05;;;;;;;5.43;3.47;;;;;;;11.69;100.00;102513.69;4924688;29;20204;-70
2023/09/15 05:10:30;;;;;;;5.93;3.90;;;;;;;11.30;100.00;102484.69;4910561;29;20240;-70
2023/09/15 05:12:56;;;;;;;5.40;3.80;;;;;;;11.54;100.00;102487.47;4921925;29;20216;-70
2023/09/15 05:15:21;;;;;;;5.30;3.80;;;;;;;11.54;100.00;102503.59;4920915;29;20781;-70
2023/09/15 05:17:47;;;;;;;6.03;3.77;;;;;;;11.20;100.00;102449.09;4926304;29;20715;-70
2023/09/15 05:20:12;;;;;;;5.23;3.47;;;;;;;11.67;100.00;102513.84;4911140;29;20199;-70
2023/09/15 05:22:38;;;;;;;4.83;3.67;;;;;;;10.96;100.00;102417.59;4909855;29;20302;-70
2023/09/15 05:25:07;;;;;;;5.33;3.20;;;;;;;11.26;100.00;102478.81;4911748;29;20193;-70
2023/09/15 05:27:33;;;;;;;5.30;3.53;;;;;;;10.72;100.00;102432.63;4925109;29;20308;-70
2023/09/15 05:29:59;;;;;;;6.50;3.70;;;;;;;10.54;100.00;102424.66;4907781;29;20938;-70
2023/09/15 05:32:24;;;;;;;6.87;3.53;;;;;;;11.38;100.00;102538.47;4910907;29;20440;-70
2023/09/15 05:34:50;;;;;;;6.53;4.03;;;;;;;10.83;100.00;102445.75;4918487;29;20283;-70
2023/09/15 05:37:15;;;;;;;5.30;3.30;;;;;;;11.16;100.00;102436.97;4910372;29;20184;-70
2023/09/15 05:39:41;;;;;;;5.37;4.10;;;;;;;10.90;100.00;102423.63;4909069;29;20192;-70
2023/09/15 05:42:06;;;;;;;4.83;3.17;;;;;;;11.47;100.00;102528.56;4909577;29;20757;-70
2023/09/15 05:44:32;;;;;;;5.60;3.73;;;;;;;11.77;100.00;102535.19;4907586;29;20307;-70
2023/09/15 05:46:59;;;;;;;6.23;3.63;;;;;;;11.26;100.00;102419.72;4909739;29;20224;-70
2023/09/15 05:49:25;;;;;;;4.50;3.40;;;;;;;11.80;100.00;102504.44;4911008;29;20204;-70
2023/09/15 05:51:50;;;;;;;6.50;3.27;;;;;;;11.27;100.00;102425.94;4909478;29;20801;-70
2023/09/15 05:54:15;;;;;;;6.00;4.00;;;;;;;11.23;100.00;102405.78;4922496;28;20687;-70
2023/09/15 05:56:41;;;;;;;6.33;3.90;;;;;;;11.72;100.00;102490.00;4908254;29;20189;-70
2023/09/15 05:59:07;;;;;;;6.70;3.83;;;;;;;11.44;100.00;102494.81;4910775;29;20208;-70
2023/09/15 06:01:32;;;;;;;6.30;4.10;;;;;;;10.99;100.00;102439.63;4911872;29;20223;-70
2023/09/15 06:03:59;;;;;;;5.40;3.40;;;;;;;11.04;100.00;102445.31;4910875;29;20821;-70
2023/09/15 06:06:25;;;;;;;5.50;3.70;;;;;;;11.60;100.00;102503.91;4921167;29;20213;-70
2023/09/15 06:08:50;;;;;;;6.33;3.80;;;;;;;11.99;100.00;102539.97;4912015;29;20454;-70
2023/09/15 06:11:16;;;;;;;5.03;4.00;;;;;;;11.17;100.00;102407.28;4909123;29;20765;-70
2023/09/15 06:13:42;;;;;;;6.03;3.90;;;;;;;11.98;100.00;102524.00;4908785;29;20212;-70
2023/09/15 06:16:08;;;;;;;4.83;3.50;;;;;;;11.73;100.00;102509.66;4920508;29;20287;-70
2023/09/15 06:18:33;;;;;;;5.60;3.77;;;;;;;11.47;100.00;102415.72;4909222;29;20515;-70
2023/09/15 06:20:59;;;;;;;5.40;3.60;;;;;;;11.96;100.00;102486.50;4908724;29;20232;-70
2023/09/15 06:23:24;;;;;;;4.63;3.27;;;;;;;11.74;100.00;102441.44;4924146;29;20246;-70
2023/09/15 06:25:51;;;;;;;6.30;3.60;;;;;;;12.22;100.00;102531.25;4925074;29;20280;-70
2023/09/15 06:28:17;;;;;;;7.10;3.60;;;;;;;12.19;100.00;102470.53;4922641;29;20235;-70
2023/09/15 06:30:42;;;;;;;7.60;3.70;;;;;;;12.14;100.00;102466.66;4910174;29;21405;-70
2023/09/15 06:33:08;;;;;;;6.63;3.90;;;;;;;12.00;100.00;102427.84;4921892;29;20260;-70
2023/09/15 06:35:34;;;;;;;5.60;3.17;;;;;;;12.32;100.00;102496.06;4907408;29;20204;-70
2023/09/15 06:38:00;;;;;;;5.30;3.57;;;;;;;12.49;100.00;102518.44;4920120;29;20182;-70
2023/09/15 06:40:25;;;;;;;6.53;3.70;;;;;;;12.42;100.00;102510.22;4906598;29;20854;-70
2023/09/15 06:42:51;;;;;;;4.97;3.30;;;;;;;12.41;100.00;102478.91;4909226;29;20208;-70
2023/09/15 06:45:17;;;;;;;5.13;3.40;;;;;;;11.88;100.00;102403.16;4908056;29;20279;-70
2023/09/15 06:47:42;;;;;;;6.00;3.47;;;;;;;11.92;100.00;102374.94;4921203;29;20224;-70
2023/09/15 06:50:08;;;;;;;6.33;3.43;;;;;;;12.35;100.00;102468.81;4909569;29;20224;-70
2023/09/15 06:52:33;;;;;;;6.97;3.30;;;;;;;12.38;100.00;102442.44;4921201;29;20291;-70
2023/09/15 06:54:59;;;;;;;4.93;3.07;;;;;;;12.05;100.00;102406.66;4920004;29;20456;-70
2023/09/15 06:57:24;;;;;;;5.40;3.33;;;;;;;12.29;100.00;102404.94;4905632;29;20189;-70
2023/09/15 06:59:51;;;;;;;6.73;3.30;;;;;;;13.00;100.00;102489.34;4906457;29;20595;-70
2023/09/15 07:02:16;;;;;;;6.43;2.70;;;;;;;12.62;100.00;102421.84;4907025;29;20192;-70
2023/09/15 07:04:43;;;;;;;5.40;3.13;;;;;;;12.96;100.00;102490.69;4910005;29;20534;-70
2023/09/15 07:07:09;;;;;;;7.50;3.53;;;;;;;12.35;100.00;102378.22;4923878;29;20220;-70
2023/09/15 07:09:35;;;;;;;5.60;3.43;;;;;;;12.19;100.00;102381.75;4908011;29;20462;-70
2023/09/15 07:12:01;;;;;;;6.03;3.40;;;;;;;13.02;100.00;102508.88;4907360;29;20449;-70
2023/09/15 07:14:27;;;;;;;6.27;3.30;;;;;;;12.81;100.00;102442.97;4907581;29;20526;-70
2023/09/15 07:16:53;;;;;;;7.87;3.90;;;;;;;13.02;100.00;102460.41;4908891;29;20235;-70
2023/09/15 07:19:18;;;;;;;7.13;3.40;;;;;;;13.51;100.00;102485.25;4909948;29;21132;-70
2023/09/15 07:21:44;;;;;;;4.20;3.03;;;;;;;12.81;100.00;102374.81;4923694;29;20240;-70
2023/09/15 07:24:10;;;;;;;5.50;2.87;;;;;;;13.00;100.00;102404.00;4922582;29;20635;-70
2023/09/15 07:26:36;;;;;;;4.00;3.00;;;;;;;12.91;100.00;102391.59;4902141;29;20480;-70
2023/09/15 07:29:03;;;;;;;5.60;2.97;;;;;;;13.49;100.00;102438.75;4908525;29;20444;-70
2023/09/15 07:31:32;;;;;;;4.40;2.57;;;;;;;13.84;100.00;102490.41;4922379;29;20271;-70
2023/09/15 07:33:58;;;;;;;4.60;2.90;;;;;;;13.56;100.00;102426.22;4908234;29;20480;-70
2023/09/15 07:36:23;;;;;;;4.77;2.40;;;;;;;13.19;100.00;102383.88;4923918;29;20437;-70
2023/09/15 07:38:49;;;;;;;6.33;3.67;;;;;;;13.88;100.00;102445.03;4908582;29;20211;-70
2023/09/15 07:41:14;;;;;;;7.00;3.07;;;;;;;13.59;100.00;102405.31;4909671;29;20239;-70
2023/09/15 07:43:40;;;;;;;4.13;2.50;;;;;;;13.45;100.00;102379.97;4925278;29;20208;-70
2023/09/15 07:46:05;;;;;;;5.20;3.50;;;;;;;13.70;100.00;102364.44;4911693;29;20243;-70
2023/09/15 07:48:31;;;;;;;5.80;2.70;;;;;;;13.84;100.00;102398.72;4909534;29;20651;-70
2023/09/15 07:50:57;;;;;;;4.90;2.70;;;;;;;13.61;100.00;102369.09;4914628;29;20624;-70
2023/09/15 07:53:22;;;;;;;6.03;2.93;;;;;;;14.37;100.00;102466.16;4909938;29;20448;-70
2023/09/15 07:55:48;;;;;;;6.37;2.80;;;;;;;14.44;100.00;102472.53;4905328;29;20195;-70
2023/09/15 07:58:13;;;;;;;7.50;3.20;;;;;;;14.22;100.00;102394.13;4908203;29;20211;-70
2023/09/15 08:00:39;;;;;;;5.10;2.97;;;;;;;13.84;100.00;102338.53;4903881;29;20192;-71
2023/09/15 08:03:04;;;;;;;4.20;2.50;;;;;;;14.37;100.00;102431.91;4903320;29;20200;-70
2023/09/15 08:05:29;;;;;;;3.63;2.30;;;;;;;13.34;100.00;102243.81;4900580;29;20197;-70
2023/09/15 08:07:55;;;;;;;4.63;2.30;;;;;;;14.11;100.00;102353.25;4904885;29;20251;-70
2023/09/15 08:10:22;;;;;;;3.77;2.40;;;;;;;14.12;100.00;102360.34;4920811;29;20203;-70
2023/09/15 08:12:52;;;;;;;3.40;2.47;;;;;;;14.90;100.00;102440.78;4919465;29;20208;-70
2023/09/15 08:15:19;;;;;;;4.70;2.73;;;;;;;14.74;100.00;102392.38;4921082;29;20441;-70
2023/09/15 08:17:44;;;;;;;6.73;3.03;;;;;;;14.92;100.00;102417.09;4922889;29;20453;-70
2023/09/15 08:20:11;;;;;;;5.07;2.10;;;;;;;15.13;100.00;102429.84;4908063;29;20479;-70
2023/09/15 08:22:38;;;;;;;3.53;1.90;;;;;;;14.50;100.00;102288.19;4894230;29;20315;-70
2023/09/15 08:25:05;;;;;;;4.00;2.23;;;;;;;14.67;100.00;102292.38;4916583;29;20436;-70
2023/09/15 08:27:30;;;;;;;5.45;2.40;;;;;;;15.42;100.00;102392.06;4920237;29;20967;-67
2023/09/15 08:29:55;;;;;;;4.97;2.20;;;;;;;15.25;100.00;102351.78;4902842;29;20545;-67
2023/09/15 08:32:21;;;;;;;5.50;2.63;;;;;;;15.54;100.00;102391.38;4906272;29;20192;-67
2023/09/15 08:34:46;;;;;;;3.83;2.00;;;;;;;15.10;100.00;102314.03;4909155;29;20192;-68
2023/09/15 08:37:14;;;;;;;4.37;2.20;;;;;;;14.96;100.00;102290.59;4912301;29;20194;-67
2023/09/15 08:39:40;;;;;;;4.20;2.20;;;;;;;15.07;100.00;102333.31;4913110;29;20206;-68
2023/09/15 08:42:15;;;;;;;3.93;2.10;;;;;;;15.03;100.00;102298.75;4920770;29;20452;-67
2023/09/15 08:44:42;;;;;;;4.17;2.10;;;;;;;15.09;100.00;102281.78;4911115;29;20571;-67
2023/09/15 08:47:09;;;;;;;5.00;2.27;;;;;;;15.20;100.00;102281.25;4909166;29;20480;-68
2023/09/15 08:49:35;;;;;;;4.50;2.07;;;;;;;15.24;100.00;102282.53;4908533;29;21360;-67
2023/09/15 08:52:03;;;;;;;5.47;2.17;;;;;;;15.82;100.00;102350.88;4923026;29;20990;-67
2023/09/15 08:54:30;;;;;;;4.80;2.20;;;;;;;15.69;100.00;102328.28;4909663;29;20473;-68
2023/09/15 08:56:55;;;;;;;7.13;1.93;;;;;;;15.73;100.00;102316.03;4911147;29;20486;-68
2023/09/15 08:59:21;;;;;;;3.67;2.00;;;;;;;15.49;100.00;102264.03;4920210;29;20477;-68
2023/09/15 09:01:47;;;;;;;6.33;1.70;;;;;;;16.09;100.00;102355.63;4924773;29;20271;-67
2023/09/15 09:04:13;;;;;;;5.10;2.30;;;;;;;16.16;100.00;102356.50;4909382;29;20558;-67
2023/09/15 09:06:39;;;;;;;3.90;1.60;;;;;;;15.56;100.00;102250.53;4918037;29;20216;-67
2023/09/15 09:09:07;;;;;;;3.83;1.90;;;;;;;15.70;100.00;102236.09;4910979;29;20192;-68
2023/09/15 09:11:32;;;;;;;4.57;1.60;;;;;;;16.18;100.00;102308.41;4919304;29;23669;-67
2023/09/15 09:13:58;;;;;;;3.50;1.70;;;;;;;16.31;100.00;102307.63;4922045;29;20472;-67
2023/09/15 09:16:24;;;;;;;4.30;1.97;;;;;;;16.45;100.00;102318.31;4918381;29;20551;-68
2023/09/15 09:19:06;;;;;;;3.60;1.87;;;;;;;16.63;100.00;102319.63;4911656;29;20200;-68
2023/09/15 09:21:33;;;;;;;3.23;1.60;;;;;;;16.68;100.00;102325.28;4925630;29;20482;-68
2023/09/15 09:23:59;;;;;;;3.67;1.60;;;;;;;16.62;100.00;102321.50;4926011;29;20464;-68
2023/09/15 09:26:25;;;;;;;6.70;1.53;;;;;;;16.82;100.00;102340.56;4909997;29;20471;-67
2023/09/15 09:28:56;;;;;;;3.83;1.40;;;;;;;16.84;100.00;102314.13;4914351;29;20625;-67
2023/09/15 09:31:24;;;;;;;8.23;2.30;;;;;;;17.12;100.00;102316.66;4927805;29;20192;-67
2023/09/15 09:33:50;;;;;;;3.93;1.80;;;;;;;17.11;100.00;102278.91;4911144;29;20480;-68
2023/09/15 09:36:16;;;;;;;5.20;2.07;;;;;;;16.34;100.00;102172.66;4910667;29;20599;-67
2023/09/15 09:38:43;;;;;;;3.90;1.70;;;;;;;16.41;100.00;102148.34;4904746;29;20892;-69
2023/09/15 09:41:12;;;;;;;4.97;1.50;;;;;;;16.49;100.00;102138.13;4907515;29;20802;-68
2023/09/15 09:43:39;;;;;;;4.93;1.97;;;;;;;16.62;100.00;102156.25;4909863;29;20546;-68
2023/09/15 09:46:06;;;;;;;4.20;1.70;;;;;;;16.82;100.00;102174.44;4916577;29;20444;-68
2023/09/15 09:48:34;;;;;;;4.00;1.50;;;;;;;17.38;100.00;102248.03;4923263;29;20555;-68
2023/09/15 09:51:01;;;;;;;4.87;1.90;;;;;;;16.85;100.00;102130.69;4911284;29;20859;-68
2023/09/15 09:53:29;;;;;;;4.60;2.00;;;;;;;17.24;100.00;102147.94;4909816;29;20464;-68
2023/09/15 09:55:56;;;;;;;4.10;1.40;;;;;;;16.85;100.00;102106.28;4916804;29;20460;-68
2023/09/15 09:58:23;;;;;;;6.10;2.00;;;;;;;17.59;100.00;102168.31;4923587;29;20448;-68
2023/09/15 10:00:51;;;;;;;7.10;2.37;;;;;;;17.45;100.00;102125.16;4919815;29;20991;-68
2023/09/15 10:03:26;;;;;;;7.77;2.40;;;;;;;17.00;100.00;102032.88;4906281;29;20891;-68
2023/09/15 10:05:55;;;;;;;4.10;2.20;;;;;;;17.08;100.00;102044.31;4906077;29;20443;-68
2023/09/15 10:08:20;;;;;;;4.23;2.13;;;;;;;17.75;100.00;102118.16;4917432;29;20504;-68
2023/09/15 10:10:49;;;;;;;5.10;2.37;;;;;;;17.60;100.00;102095.88;4909544;29;20536;-68
2023/09/15 10:13:16;;;;;;;5.87;2.73;;;;;;;17.46;100.00;102026.47;4922517;29;20296;-68
2023/09/15 10:15:42;;;;;;;4.57;2.40;;;;;;;17.32;100.00;102018.38;4908391;29;20449;-68
2023/09/15 10:18:12;;;;;;;4.83;2.03;;;;;;;17.98;100.00;102117.66;4908094;29;20449;-68
2023/09/15 10:20:39;;;;;;;6.70;2.77;;;;;;;18.15;100.00;102117.97;4909175;29;20450;-68
2023/09/15 10:23:06;;;;;;;4.20;2.50;;;;;;;17.39;100.00;102008.34;4906697;29;20455;-68
2023/09/15 10:25:45;;;;;;;5.50;3.07;;;;;;;17.98;100.00;102093.22;4924178;29;20922;-68
2023/09/15 10:28:11;;;;;;;5.27;2.60;;;;;;;18.18;100.00;102105.84;4907011;29;21046;-68
2023/09/15 10:30:40;;;;;;;4.10;1.93;;;;;;;18.28;100.00;102108.91;4907691;29;20484;-68
2023/09/15 10:33:10;;;;;;;6.30;3.03;;;;;;;18.16;100.00;102097.91;4908402;29;20695;-68
2023/09/15 10:35:39;;;;;;;4.40;2.10;;;;;;;18.10;100.00;102106.94;4909357;29;20848;-69
2023/09/15 10:38:05;;;;;;;6.07;2.40;;;;;;;18.15;100.00;102081.84;4910597;29;20495;-69
2023/09/15 10:40:44;;;;;;;5.20;2.60;;;;;;;18.04;100.00;102067.09;4909206;29;20459;-68
2023/09/15 10:43:11;;;;;;;4.57;2.10;;;;;;;17.91;100.00;101983.03;4920763;29;20208;-69
2023/09/15 10:45:37;;;;;;;7.03;3.27;;;;;;;18.68;100.00;102056.97;4924291;29;20511;-68
2023/09/15 10:48:04;;;;;;;4.13;2.40;;;;;;;18.57;100.00;102014.22;4924687;29;20216;-68
2023/09/15 10:50:35;;;;;;;5.57;2.37;;;;;;;17.95;100.00;101943.53;4923562;29;20221;-68
2023/09/15 10:53:12;;;;;;;2.70;1.50;;;;;;;18.69;100.00;102051.31;4922231;29;21092;-69
2023/09/15 10:55:38;;;;;;;5.07;2.17;;;;;;;18.22;100.00;101960.41;4907733;29;20444;-68
2023/09/15 10:58:04;;;;;;;6.23;2.27;;;;;;;18.43;100.00;101960.03;4923527;29;20527;-69
2023/09/15 11:00:31;;;;;;;3.20;1.53;;;;;;;18.77;100.00;102038.53;4908177;29;21152;-68
2023/09/15 11:02:57;;;;;;;3.90;1.87;;;;;;;18.33;100.00;101954.28;4908952;29;20464;-69
2023/09/15 11:05:23;;;;;;;3.20;1.70;;;;;;;19.08;100.00;102057.44;4918645;29;20467;-69
2023/09/15 11:07:49;;;;;;;5.50;1.87;;;;;;;18.47;100.00;101941.41;4908622;29;20216;-69
2023/09/15 11:10:15;;;;;;;7.23;2.03;;;;;;;18.49;100.00;101937.41;4908702;29;20456;-68
2023/09/15 11:12:40;;;;;;;3.80;1.80;;;;;;;18.58;100.00;101951.53;4907947;29;20469;-69
2023/09/15 11:15:07;;;;;;;4.60;2.00;;;;;;;18.62;100.00;101935.59;4908560;29;20202;-68